KDNL/DNL METAR and TAF weather

Enter ICAO airport designator
Station Type Date Time Source
KDNL METAR 2020/01/18 03:53 UTC NOAA

KDNL 180353Z AUTO 09006KT 10SM CLR 07/M05 A3060 RMK AO2 SLP361 T00671050


Station Type Date Time Source
KDNL Decoded METAR 2020/01/18 03:53 UTC NOAA

AUGUSTA DANIEL FIELD, GA, United States (KDNL) 33-28N 82-02W 130M
Jan 17, 2020 - 10:53 PM EST / 2020.01.18 0353 UTC
Wind: from the E (090 degrees) at 7 MPH (6 KT):0
Visibility: 10 mile(s):0
Sky conditions: clear
Temperature: 44.1 F (6.7 C)
Dew Point: 23.0 F (-5.0 C)
Relative Humidity: 42%
Pressure (altimeter): 30.6 in. Hg (1036 hPa)
ob: KDNL 180353Z AUTO 09006KT 10SM CLR 07/M05 A3060 RMK AO2 SLP361 T00671050
cycle: 4

Station Type Date Time Source
KDNL TAF 2020/01/18 04:42 UTC NOAA

TAF
AMD KDNL 180339Z 1804/1824 08007KT P6SM SCT120 BKN250
FM181100 05005KT P6SM SCT015 BKN030
FM181400 10005KT P6SM BKN020 OVC035
FM181800 14005KT P6SM BKN015 OVC030
FM182100 19006KT P6SM VCSH BKN015 OVC025

Example: see airport list